sensor_id;sensor_type;location;lat;lon;timestamp;pressure;altitude;pressure_sealevel;temperature;humidity
48810;BME280;40070;47.322;18.784;2023-08-21T00:01:20;1006.42;;;24.03;77.32
48810;BME280;40070;47.322;18.784;2023-08-21T00:03:21;1006.42;;;24.05;77.02
48810;BME280;40070;47.322;18.784;2023-08-21T00:05:22;1006.45;;;24.06;76.85
48810;BME280;40070;47.322;18.784;2023-08-21T00:07:23;1006.44;;;24.07;76.76
48810;BME280;40070;47.322;18.784;2023-08-21T00:09:24;1006.47;;;24.20;76.55
48810;BME280;40070;47.322;18.784;2023-08-21T00:11:25;1006.46;;;24.25;76.39
48810;BME280;40070;47.322;18.784;2023-08-21T00:13:26;1006.49;;;24.25;76.31
48810;BME280;40070;47.322;18.784;2023-08-21T00:15:27;1006.50;;;24.14;76.56
48810;BME280;40070;47.322;18.784;2023-08-21T00:17:28;1006.49;;;24.09;76.59
48810;BME280;40070;47.322;18.784;2023-08-21T00:19:29;1006.53;;;24.07;76.63
48810;BME280;40070;47.322;18.784;2023-08-21T00:21:30;1006.47;;;24.03;76.80
48810;BME280;40070;47.322;18.784;2023-08-21T00:23:31;1006.51;;;23.99;77.05
48810;BME280;40070;47.322;18.784;2023-08-21T00:25:33;1006.50;;;24.06;76.91
48810;BME280;40070;47.322;18.784;2023-08-21T00:27:34;1006.51;;;24.10;76.65
48810;BME280;40070;47.322;18.784;2023-08-21T00:29:35;1006.49;;;24.11;76.75
48810;BME280;40070;47.322;18.784;2023-08-21T00:31:36;1006.46;;;24.06;76.99
48810;BME280;40070;47.322;18.784;2023-08-21T00:33:37;1006.46;;;24.02;76.78
48810;BME280;40070;47.322;18.784;2023-08-21T00:35:38;1006.43;;;23.97;76.75
48810;BME280;40070;47.322;18.784;2023-08-21T00:37:39;1006.45;;;23.97;76.86
48810;BME280;40070;47.322;18.784;2023-08-21T00:39:40;1006.42;;;23.96;76.86
48810;BME280;40070;47.322;18.784;2023-08-21T00:41:40;1006.45;;;23.91;76.91
48810;BME280;40070;47.322;18.784;2023-08-21T00:43:41;1006.47;;;23.81;77.42
48810;BME280;40070;47.322;18.784;2023-08-21T00:45:43;1006.48;;;23.81;77.54
48810;BME280;40070;47.322;18.784;2023-08-21T00:47:44;1006.53;;;23.81;77.37
48810;BME280;40070;47.322;18.784;2023-08-21T00:49:45;1006.53;;;23.79;77.65
48810;BME280;40070;47.322;18.784;2023-08-21T00:51:47;1006.54;;;23.81;77.95
48810;BME280;40070;47.322;18.784;2023-08-21T00:53:49;1006.53;;;23.82;77.82
48810;BME280;40070;47.322;18.784;2023-08-21T00:55:50;1006.50;;;23.89;77.57
48810;BME280;40070;47.322;18.784;2023-08-21T00:57:51;1006.59;;;23.81;77.86
48810;BME280;40070;47.322;18.784;2023-08-21T00:59:52;1006.56;;;23.88;77.56
48810;BME280;40070;47.322;18.784;2023-08-21T01:01:53;1006.50;;;23.76;77.98
48810;BME280;40070;47.322;18.784;2023-08-21T01:03:54;1006.51;;;23.75;78.21
48810;BME280;40070;47.322;18.784;2023-08-21T01:05:56;1006.49;;;23.64;78.54
48810;BME280;40070;47.322;18.784;2023-08-21T01:07:59;1006.46;;;23.57;78.89
48810;BME280;40070;47.322;18.784;2023-08-21T01:10:09;1006.47;;;23.81;77.57
48810;BME280;40070;47.322;18.784;2023-08-21T01:12:14;1006.54;;;23.51;78.63
48810;BME280;40070;47.322;18.784;2023-08-21T01:16:35;1006.67;;;23.42;79.73
48810;BME280;40070;47.322;18.784;2023-08-21T01:18:37;1006.60;;;23.52;78.63
48810;BME280;40070;47.322;18.784;2023-08-21T01:20:39;1006.63;;;23.64;78.05
48810;BME280;40070;47.322;18.784;2023-08-21T01:22:41;1006.56;;;23.43;78.92
48810;BME280;40070;47.322;18.784;2023-08-21T01:24:42;1006.58;;;23.49;78.75
48810;BME280;40070;47.322;18.784;2023-08-21T01:26:43;1006.61;;;23.49;78.87
48810;BME280;40070;47.322;18.784;2023-08-21T01:28:44;1006.67;;;23.58;78.44
48810;BME280;40070;47.322;18.784;2023-08-21T01:30:45;1006.66;;;23.43;79.47
48810;BME280;40070;47.322;18.784;2023-08-21T01:32:53;1006.65;;;23.42;78.76
48810;BME280;40070;47.322;18.784;2023-08-21T01:34:59;1006.68;;;23.19;80.07
48810;BME280;40070;47.322;18.784;2023-08-21T01:37:01;1006.76;;;23.31;79.54
48810;BME280;40070;47.322;18.784;2023-08-21T01:39:02;1006.74;;;23.36;79.59
48810;BME280;40070;47.322;18.784;2023-08-21T01:41:03;1006.79;;;23.39;79.01
48810;BME280;40070;47.322;18.784;2023-08-21T01:43:04;1006.75;;;23.46;78.90
48810;BME280;40070;47.322;18.784;2023-08-21T01:45:05;1006.83;;;23.33;79.29
48810;BME280;40070;47.322;18.784;2023-08-21T01:47:06;1006.83;;;22.86;81.06
48810;BME280;40070;47.322;18.784;2023-08-21T01:49:07;1006.81;;;22.79;81.39
48810;BME280;40070;47.322;18.784;2023-08-21T01:51:08;1006.83;;;22.66;82.48
48810;BME280;40070;47.322;18.784;2023-08-21T01:53:09;1006.84;;;22.95;81.93
48810;BME280;40070;47.322;18.784;2023-08-21T01:55:10;1006.88;;;23.01;80.60
48810;BME280;40070;47.322;18.784;2023-08-21T01:57:11;1006.86;;;23.11;80.49
48810;BME280;40070;47.322;18.784;2023-08-21T01:59:12;1006.89;;;23.15;80.30
48810;BME280;40070;47.322;18.784;2023-08-21T02:01:13;1006.87;;;23.20;79.87
48810;BME280;40070;47.322;18.784;2023-08-21T02:03:14;1006.91;;;23.29;79.81
48810;BME280;40070;47.322;18.784;2023-08-21T02:05:15;1006.94;;;23.25;80.10
48810;BME280;40070;47.322;18.784;2023-08-21T02:07:16;1006.93;;;23.26;79.61
48810;BME280;40070;47.322;18.784;2023-08-21T02:09:17;1006.96;;;22.98;80.76
48810;BME280;40070;47.322;18.784;2023-08-21T02:11:18;1006.99;;;22.93;81.03
48810;BME280;40070;47.322;18.784;2023-08-21T02:13:19;1006.93;;;23.12;80.44
48810;BME280;40070;47.322;18.784;2023-08-21T02:15:20;1006.99;;;23.28;79.41
48810;BME280;40070;47.322;18.784;2023-08-21T02:17:21;1006.95;;;23.20;79.18
48810;BME280;40070;47.322;18.784;2023-08-21T02:19:22;1006.99;;;23.36;78.71
48810;BME280;40070;47.322;18.784;2023-08-21T02:21:23;1006.99;;;23.35;78.78
48810;BME280;40070;47.322;18.784;2023-08-21T02:23:24;1006.95;;;23.37;78.36
48810;BME280;40070;47.322;18.784;2023-08-21T02:25:25;1006.93;;;23.39;78.35
48810;BME280;40070;47.322;18.784;2023-08-21T02:27:26;1006.90;;;23.56;77.62
48810;BME280;40070;47.322;18.784;2023-08-21T02:29:27;1006.89;;;23.48;77.44
48810;BME280;40070;47.322;18.784;2023-08-21T02:31:28;1006.80;;;23.67;76.78
48810;BME280;40070;47.322;18.784;2023-08-21T02:33:29;1006.84;;;23.56;76.73
48810;BME280;40070;47.322;18.784;2023-08-21T02:35:30;1006.87;;;23.25;78.38
48810;BME280;40070;47.322;18.784;2023-08-21T02:37:31;1006.90;;;22.91;79.92
48810;BME280;40070;47.322;18.784;2023-08-21T02:39:32;1006.90;;;23.14;79.39
48810;BME280;40070;47.322;18.784;2023-08-21T02:41:33;1006.89;;;23.23;78.70
48810;BME280;40070;47.322;18.784;2023-08-21T02:43:34;1006.89;;;23.08;79.89
48810;BME280;40070;47.322;18.784;2023-08-21T02:45:35;1006.89;;;22.93;80.52
48810;BME280;40070;47.322;18.784;2023-08-21T02:47:39;1006.83;;;23.16;78.82
48810;BME280;40070;47.322;18.784;2023-08-21T02:49:40;1006.89;;;22.92;80.79
48810;BME280;40070;47.322;18.784;2023-08-21T02:51:41;1006.89;;;22.68;81.61
48810;BME280;40070;47.322;18.784;2023-08-21T02:53:42;1006.88;;;22.63;82.04
48810;BME280;40070;47.322;18.784;2023-08-21T02:55:43;1006.86;;;22.71;81.86
48810;BME280;40070;47.322;18.784;2023-08-21T02:57:44;1006.79;;;22.62;81.74
48810;BME280;40070;47.322;18.784;2023-08-21T02:59:45;1006.78;;;22.45;82.52
48810;BME280;40070;47.322;18.784;2023-08-21T03:01:46;1006.81;;;22.54;82.63
48810;BME280;40070;47.322;18.784;2023-08-21T03:03:47;1006.78;;;22.87;80.92
48810;BME280;40070;47.322;18.784;2023-08-21T03:05:48;1006.79;;;22.93;80.57
48810;BME280;40070;47.322;18.784;2023-08-21T03:07:49;1006.79;;;23.05;79.13
48810;BME280;40070;47.322;18.784;2023-08-21T03:09:50;1006.77;;;23.08;79.15
48810;BME280;40070;47.322;18.784;2023-08-21T03:11:51;1006.75;;;23.01;79.07
48810;BME280;40070;47.322;18.784;2023-08-21T03:13:52;1006.74;;;23.06;78.89
48810;BME280;40070;47.322;18.784;2023-08-21T03:15:53;1006.77;;;23.00;78.80
48810;BME280;40070;47.322;18.784;2023-08-21T03:17:55;1006.75;;;23.04;78.59
48810;BME280;40070;47.322;18.784;2023-08-21T03:19:56;1006.78;;;23.02;79.04
48810;BME280;40070;47.322;18.784;2023-08-21T03:21:57;1006.82;;;23.06;78.57
48810;BME280;40070;47.322;18.784;2023-08-21T03:23:58;1006.84;;;22.90;79.56
48810;BME280;40070;47.322;18.784;2023-08-21T03:25:59;1006.86;;;22.66;80.65
48810;BME280;40070;47.322;18.784;2023-08-21T03:28:00;1006.88;;;22.73;80.33
48810;BME280;40070;47.322;18.784;2023-08-21T03:30:01;1006.89;;;22.83;79.83
48810;BME280;40070;47.322;18.784;2023-08-21T03:32:02;1006.92;;;22.84;79.11
48810;BME280;40070;47.322;18.784;2023-08-21T03:34:03;1006.90;;;22.85;78.93
48810;BME280;40070;47.322;18.784;2023-08-21T03:36:04;1006.90;;;22.90;78.57
48810;BME280;40070;47.322;18.784;2023-08-21T03:38:05;1006.87;;;22.88;79.19
48810;BME280;40070;47.322;18.784;2023-08-21T03:40:07;1006.89;;;22.81;79.14
48810;BME280;40070;47.322;18.784;2023-08-21T03:42:08;1006.92;;;22.89;78.88
48810;BME280;40070;47.322;18.784;2023-08-21T03:44:09;1007.00;;;22.90;78.51
48810;BME280;40070;47.322;18.784;2023-08-21T03:46:10;1006.98;;;22.90;78.57
48810;BME280;40070;47.322;18.784;2023-08-21T03:48:11;1007.01;;;22.93;78.57
48810;BME280;40070;47.322;18.784;2023-08-21T03:50:12;1007.01;;;22.67;79.78
48810;BME280;40070;47.322;18.784;2023-08-21T03:52:13;1006.98;;;22.18;82.58
48810;BME280;40070;47.322;18.784;2023-08-21T03:54:13;1007.05;;;22.00;84.32
48810;BME280;40070;47.322;18.784;2023-08-21T03:56:15;1006.93;;;22.16;83.75
48810;BME280;40070;47.322;18.784;2023-08-21T03:58:16;1006.95;;;22.36;81.60
48810;BME280;40070;47.322;18.784;2023-08-21T04:00:17;1006.92;;;22.42;81.22
48810;BME280;40070;47.322;18.784;2023-08-21T04:02:18;1007.00;;;22.50;81.10
48810;BME280;40070;47.322;18.784;2023-08-21T04:04:18;1007.00;;;22.58;80.61
48810;BME280;40070;47.322;18.784;2023-08-21T04:06:20;1007.00;;;22.66;80.47
48810;BME280;40070;47.322;18.784;2023-08-21T04:08:21;1006.97;;;22.83;79.33
48810;BME280;40070;47.322;18.784;2023-08-21T04:10:22;1006.97;;;22.69;79.33
48810;BME280;40070;47.322;18.784;2023-08-21T04:12:23;1006.97;;;22.68;79.84
48810;BME280;40070;47.322;18.784;2023-08-21T04:14:23;1006.93;;;22.67;79.62
48810;BME280;40070;47.322;18.784;2023-08-21T04:16:26;1006.94;;;22.65;79.67
48810;BME280;40070;47.322;18.784;2023-08-21T04:18:27;1006.92;;;22.54;80.20
48810;BME280;40070;47.322;18.784;2023-08-21T04:20:27;1006.95;;;22.52;80.60
48810;BME280;40070;47.322;18.784;2023-08-21T04:22:29;1006.97;;;22.58;80.71
48810;BME280;40070;47.322;18.784;2023-08-21T04:24:30;1006.98;;;22.63;80.46
48810;BME280;40070;47.322;18.784;2023-08-21T04:26:31;1006.93;;;22.70;80.01
48810;BME280;40070;47.322;18.784;2023-08-21T04:28:33;1006.95;;;22.71;80.18
48810;BME280;40070;47.322;18.784;2023-08-21T04:30:34;1006.91;;;22.93;79.17
48810;BME280;40070;47.322;18.784;2023-08-21T04:32:35;1006.94;;;22.93;78.86
48810;BME280;40070;47.322;18.784;2023-08-21T04:34:36;1006.92;;;22.98;78.98
48810;BME280;40070;47.322;18.784;2023-08-21T04:36:37;1006.96;;;22.97;79.09
48810;BME280;40070;47.322;18.784;2023-08-21T04:38:38;1006.96;;;23.10;78.72
48810;BME280;40070;47.322;18.784;2023-08-21T04:40:39;1007.00;;;22.99;78.66
48810;BME280;40070;47.322;18.784;2023-08-21T04:42:40;1007.05;;;22.96;78.61
48810;BME280;40070;47.322;18.784;2023-08-21T04:44:41;1007.06;;;23.04;78.48
48810;BME280;40070;47.322;18.784;2023-08-21T04:46:42;1007.14;;;23.08;78.09
48810;BME280;40070;47.322;18.784;2023-08-21T04:48:43;1007.13;;;23.14;77.92
48810;BME280;40070;47.322;18.784;2023-08-21T04:50:44;1007.20;;;23.31;77.23
48810;BME280;40070;47.322;18.784;2023-08-21T04:52:45;1007.17;;;23.30;77.28
48810;BME280;40070;47.322;18.784;2023-08-21T04:54:47;1007.21;;;23.37;77.04
48810;BME280;40070;47.322;18.784;2023-08-21T04:56:48;1007.24;;;23.29;77.36
48810;BME280;40070;47.322;18.784;2023-08-21T04:58:49;1007.19;;;23.20;77.38
48810;BME280;40070;47.322;18.784;2023-08-21T05:00:50;1007.19;;;23.21;77.73
48810;BME280;40070;47.322;18.784;2023-08-21T05:02:51;1007.25;;;23.26;77.95
48810;BME280;40070;47.322;18.784;2023-08-21T05:04:52;1007.26;;;23.33;77.80
48810;BME280;40070;47.322;18.784;2023-08-21T05:06:53;1007.26;;;23.43;77.48
48810;BME280;40070;47.322;18.784;2023-08-21T05:08:54;1007.18;;;23.53;77.35
48810;BME280;40070;47.322;18.784;2023-08-21T05:10:58;1007.16;;;23.77;76.71
48810;BME280;40070;47.322;18.784;2023-08-21T05:12:59;1007.20;;;23.74;76.95
48810;BME280;40070;47.322;18.784;2023-08-21T05:15:00;1007.17;;;23.85;76.69
48810;BME280;40070;47.322;18.784;2023-08-21T05:17:01;1007.15;;;23.91;76.47
48810;BME280;40070;47.322;18.784;2023-08-21T05:19:02;1007.12;;;23.98;76.26
48810;BME280;40070;47.322;18.784;2023-08-21T05:21:03;1007.12;;;24.09;76.19
48810;BME280;40070;47.322;18.784;2023-08-21T05:23:04;1007.12;;;24.19;75.92
48810;BME280;40070;47.322;18.784;2023-08-21T05:25:05;1007.10;;;24.22;75.84
48810;BME280;40070;47.322;18.784;2023-08-21T05:27:06;1007.12;;;24.28;75.90
48810;BME280;40070;47.322;18.784;2023-08-21T05:29:07;1007.17;;;24.39;75.65
48810;BME280;40070;47.322;18.784;2023-08-21T05:31:08;1007.26;;;24.54;75.20
48810;BME280;40070;47.322;18.784;2023-08-21T05:33:09;1007.19;;;24.45;75.55
48810;BME280;40070;47.322;18.784;2023-08-21T05:35:10;1007.20;;;24.45;75.74
48810;BME280;40070;47.322;18.784;2023-08-21T05:37:11;1007.23;;;24.69;75.24
48810;BME280;40070;47.322;18.784;2023-08-21T05:39:12;1007.28;;;24.85;74.63
48810;BME280;40070;47.322;18.784;2023-08-21T05:41:13;1007.31;;;24.99;74.24
48810;BME280;40070;47.322;18.784;2023-08-21T05:43:16;1007.35;;;25.08;73.95
48810;BME280;40070;47.322;18.784;2023-08-21T05:45:17;1007.34;;;25.08;73.95
48810;BME280;40070;47.322;18.784;2023-08-21T05:47:19;1007.41;;;25.25;73.75
48810;BME280;40070;47.322;18.784;2023-08-21T05:49:20;1007.43;;;25.20;73.96
48810;BME280;40070;47.322;18.784;2023-08-21T05:51:21;1007.45;;;25.29;74.04
48810;BME280;40070;47.322;18.784;2023-08-21T05:53:22;1007.44;;;25.26;74.15
48810;BME280;40070;47.322;18.784;2023-08-21T05:55:23;1007.47;;;25.34;74.27
48810;BME280;40070;47.322;18.784;2023-08-21T05:57:24;1007.49;;;25.40;74.03
48810;BME280;40070;47.322;18.784;2023-08-21T05:59:29;1007.52;;;25.52;73.94
48810;BME280;40070;47.322;18.784;2023-08-21T06:01:30;1007.49;;;25.53;73.67
48810;BME280;40070;47.322;18.784;2023-08-21T06:03:31;1007.47;;;25.69;73.04
48810;BME280;40070;47.322;18.784;2023-08-21T06:05:32;1007.49;;;25.91;72.18
48810;BME280;40070;47.322;18.784;2023-08-21T06:07:33;1007.52;;;25.93;71.59
48810;BME280;40070;47.322;18.784;2023-08-21T06:09:35;1007.47;;;25.93;71.19
48810;BME280;40070;47.322;18.784;2023-08-21T06:11:36;1007.48;;;26.18;70.35
48810;BME280;40070;47.322;18.784;2023-08-21T06:13:37;1007.49;;;26.36;69.72
48810;BME280;40070;47.322;18.784;2023-08-21T06:15:38;1007.46;;;26.55;69.19
48810;BME280;40070;47.322;18.784;2023-08-21T06:17:39;1007.44;;;26.70;68.44
48810;BME280;40070;47.322;18.784;2023-08-21T06:19:40;1007.45;;;26.70;68.14
48810;BME280;40070;47.322;18.784;2023-08-21T06:21:40;1007.50;;;26.83;66.90
48810;BME280;40070;47.322;18.784;2023-08-21T06:23:41;1007.48;;;26.92;66.11
48810;BME280;40070;47.322;18.784;2023-08-21T06:25:42;1007.50;;;27.15;65.47
48810;BME280;40070;47.322;18.784;2023-08-21T06:27:43;1007.49;;;27.29;65.01
48810;BME280;40070;47.322;18.784;2023-08-21T06:29:44;1007.46;;;27.52;64.77
48810;BME280;40070;47.322;18.784;2023-08-21T06:31:45;1007.44;;;27.40;65.19
48810;BME280;40070;47.322;18.784;2023-08-21T06:33:46;1007.51;;;27.48;64.98
48810;BME280;40070;47.322;18.784;2023-08-21T06:35:47;1007.47;;;27.66;64.76
48810;BME280;40070;47.322;18.784;2023-08-21T06:37:48;1007.46;;;27.52;65.21
48810;BME280;40070;47.322;18.784;2023-08-21T06:39:49;1007.46;;;27.68;64.89
48810;BME280;40070;47.322;18.784;2023-08-21T06:41:50;1007.45;;;27.53;65.32
48810;BME280;40070;47.322;18.784;2023-08-21T06:43:51;1007.46;;;27.81;64.01
48810;BME280;40070;47.322;18.784;2023-08-21T06:45:52;1007.48;;;27.83;64.13
48810;BME280;40070;47.322;18.784;2023-08-21T06:47:53;1007.50;;;27.80;64.62
48810;BME280;40070;47.322;18.784;2023-08-21T06:49:54;1007.44;;;28.10;63.49
48810;BME280;40070;47.322;18.784;2023-08-21T06:51:55;1007.46;;;27.89;63.47
48810;BME280;40070;47.322;18.784;2023-08-21T06:53:56;1007.44;;;27.98;63.30
48810;BME280;40070;47.322;18.784;2023-08-21T06:55:57;1007.45;;;28.07;62.25
48810;BME280;40070;47.322;18.784;2023-08-21T06:57:58;1007.40;;;28.39;61.03
48810;BME280;40070;47.322;18.784;2023-08-21T06:59:59;1007.42;;;28.27;59.83
48810;BME280;40070;47.322;18.784;2023-08-21T07:02:00;1007.42;;;28.27;60.20
48810;BME280;40070;47.322;18.784;2023-08-21T07:04:01;1007.43;;;28.51;60.26
48810;BME280;40070;47.322;18.784;2023-08-21T07:06:02;1007.43;;;28.42;59.99
48810;BME280;40070;47.322;18.784;2023-08-21T07:08:03;1007.44;;;28.46;60.19
48810;BME280;40070;47.322;18.784;2023-08-21T07:10:04;1007.45;;;28.53;60.55
48810;BME280;40070;47.322;18.784;2023-08-21T07:12:06;1007.42;;;28.81;60.10
48810;BME280;40070;47.322;18.784;2023-08-21T07:14:07;1007.44;;;28.93;59.53
48810;BME280;40070;47.322;18.784;2023-08-21T07:16:08;1007.45;;;28.99;59.20
48810;BME280;40070;47.322;18.784;2023-08-21T07:18:09;1007.45;;;29.02;58.96
48810;BME280;40070;47.322;18.784;2023-08-21T07:20:10;1007.46;;;29.01;59.08
48810;BME280;40070;47.322;18.784;2023-08-21T07:22:11;1007.44;;;29.13;58.64
48810;BME280;40070;47.322;18.784;2023-08-21T07:24:12;1007.41;;;29.10;58.28
48810;BME280;40070;47.322;18.784;2023-08-21T07:26:13;1007.41;;;29.27;58.80
48810;BME280;40070;47.322;18.784;2023-08-21T07:28:14;1007.38;;;29.40;57.26
48810;BME280;40070;47.322;18.784;2023-08-21T07:30:16;1007.37;;;29.53;57.16
48810;BME280;40070;47.322;18.784;2023-08-21T07:32:17;1007.39;;;29.57;56.11
48810;BME280;40070;47.322;18.784;2023-08-21T07:34:18;1007.39;;;29.69;56.69
48810;BME280;40070;47.322;18.784;2023-08-21T07:36:19;1007.41;;;29.66;56.73
48810;BME280;40070;47.322;18.784;2023-08-21T07:38:20;1007.43;;;29.76;55.75
48810;BME280;40070;47.322;18.784;2023-08-21T07:40:21;1007.44;;;29.90;55.90
48810;BME280;40070;47.322;18.784;2023-08-21T07:42:22;1007.41;;;30.05;55.24
48810;BME280;40070;47.322;18.784;2023-08-21T07:44:22;1007.38;;;30.25;54.39
48810;BME280;40070;47.322;18.784;2023-08-21T07:46:23;1007.39;;;30.32;55.44
48810;BME280;40070;47.322;18.784;2023-08-21T07:48:24;1007.40;;;30.47;54.24
48810;BME280;40070;47.322;18.784;2023-08-21T07:50:25;1007.42;;;30.60;53.37
48810;BME280;40070;47.322;18.784;2023-08-21T07:52:26;1007.40;;;30.73;53.47
48810;BME280;40070;47.322;18.784;2023-08-21T07:54:27;1007.44;;;30.60;52.39
48810;BME280;40070;47.322;18.784;2023-08-21T07:56:28;1007.41;;;30.60;52.96
48810;BME280;40070;47.322;18.784;2023-08-21T07:58:30;1007.37;;;30.84;51.76
48810;BME280;40070;47.322;18.784;2023-08-21T08:00:30;1007.39;;;30.72;51.76
48810;BME280;40070;47.322;18.784;2023-08-21T08:02:31;1007.36;;;30.80;51.81
48810;BME280;40070;47.322;18.784;2023-08-21T08:04:32;1007.39;;;30.82;51.89
48810;BME280;40070;47.322;18.784;2023-08-21T08:06:33;1007.37;;;30.97;52.74
48810;BME280;40070;47.322;18.784;2023-08-21T08:08:34;1007.35;;;31.09;52.49
48810;BME280;40070;47.322;18.784;2023-08-21T08:10:39;1007.33;;;30.98;51.78
48810;BME280;40070;47.322;18.784;2023-08-21T08:12:41;1007.35;;;31.28;50.40
48810;BME280;40070;47.322;18.784;2023-08-21T08:14:42;1007.33;;;31.32;50.78
48810;BME280;40070;47.322;18.784;2023-08-21T08:16:43;1007.34;;;31.46;51.44
48810;BME280;40070;47.322;18.784;2023-08-21T08:18:44;1007.34;;;31.61;48.60
48810;BME280;40070;47.322;18.784;2023-08-21T08:20:45;1007.35;;;31.38;48.51
48810;BME280;40070;47.322;18.784;2023-08-21T08:22:46;1007.31;;;31.34;49.42
48810;BME280;40070;47.322;18.784;2023-08-21T08:24:47;1007.37;;;31.63;48.94
48810;BME280;40070;47.322;18.784;2023-08-21T08:26:48;1007.37;;;31.59;48.07
48810;BME280;40070;47.322;18.784;2023-08-21T08:28:49;1007.39;;;31.68;48.58
48810;BME280;40070;47.322;18.784;2023-08-21T08:30:50;1007.39;;;31.71;49.51
48810;BME280;40070;47.322;18.784;2023-08-21T08:32:51;1007.41;;;31.97;49.55
48810;BME280;40070;47.322;18.784;2023-08-21T08:34:52;1007.35;;;32.19;48.93
48810;BME280;40070;47.322;18.784;2023-08-21T08:36:53;1007.43;;;32.24;49.09
48810;BME280;40070;47.322;18.784;2023-08-21T08:38:54;1007.43;;;32.29;48.13
48810;BME280;40070;47.322;18.784;2023-08-21T08:40:55;1007.47;;;32.33;48.87
48810;BME280;40070;47.322;18.784;2023-08-21T08:42:57;1007.48;;;32.41;47.92
48810;BME280;40070;47.322;18.784;2023-08-21T08:44:58;1007.48;;;32.45;46.36
48810;BME280;40070;47.322;18.784;2023-08-21T08:47:01;1007.46;;;32.82;47.02
48810;BME280;40070;47.322;18.784;2023-08-21T08:49:02;1007.44;;;32.81;46.55
48810;BME280;40070;47.322;18.784;2023-08-21T08:51:03;1007.42;;;32.70;44.10
48810;BME280;40070;47.322;18.784;2023-08-21T08:53:04;1007.41;;;32.96;45.68
48810;BME280;40070;47.322;18.784;2023-08-21T08:55:07;1007.42;;;32.92;47.00
48810;BME280;40070;47.322;18.784;2023-08-21T08:57:08;1007.44;;;32.94;44.59
48810;BME280;40070;47.322;18.784;2023-08-21T08:59:09;1007.45;;;33.08;44.45
48810;BME280;40070;47.322;18.784;2023-08-21T09:01:10;1007.43;;;33.22;43.63
48810;BME280;40070;47.322;18.784;2023-08-21T09:03:11;1007.45;;;33.11;45.16
48810;BME280;40070;47.322;18.784;2023-08-21T09:05:12;1007.44;;;33.46;44.35
48810;BME280;40070;47.322;18.784;2023-08-21T09:07:13;1007.48;;;33.63;43.67
48810;BME280;40070;47.322;18.784;2023-08-21T09:09:17;1007.46;;;33.68;43.85
48810;BME280;40070;47.322;18.784;2023-08-21T09:11:18;1007.50;;;33.77;42.62
48810;BME280;40070;47.322;18.784;2023-08-21T09:13:20;1007.49;;;33.91;44.09
48810;BME280;40070;47.322;18.784;2023-08-21T09:15:21;1007.46;;;33.91;40.25
48810;BME280;40070;47.322;18.784;2023-08-21T09:17:28;1007.45;;;33.81;41.42
48810;BME280;40070;47.322;18.784;2023-08-21T09:19:29;1007.44;;;33.85;40.82
48810;BME280;40070;47.322;18.784;2023-08-21T09:21:30;1007.45;;;33.89;40.32
48810;BME280;40070;47.322;18.784;2023-08-21T09:23:31;1007.44;;;33.93;41.12
48810;BME280;40070;47.322;18.784;2023-08-21T09:25:38;1007.41;;;34.10;42.44
48810;BME280;40070;47.322;18.784;2023-08-21T09:27:39;1007.39;;;34.54;43.06
48810;BME280;40070;47.322;18.784;2023-08-21T09:29:40;1007.44;;;34.34;40.67
48810;BME280;40070;47.322;18.784;2023-08-21T09:31:42;1007.38;;;34.50;42.19
48810;BME280;40070;47.322;18.784;2023-08-21T09:33:43;1007.33;;;34.63;42.13
48810;BME280;40070;47.322;18.784;2023-08-21T09:35:44;1007.29;;;34.81;40.06
48810;BME280;40070;47.322;18.784;2023-08-21T09:37:48;1007.29;;;34.89;41.29
48810;BME280;40070;47.322;18.784;2023-08-21T09:39:49;1007.25;;;34.85;40.18
48810;BME280;40070;47.322;18.784;2023-08-21T09:41:56;1007.22;;;34.74;40.20
48810;BME280;40070;47.322;18.784;2023-08-21T09:44:00;1007.23;;;34.84;40.84
48810;BME280;40070;47.322;18.784;2023-08-21T09:46:01;1007.18;;;34.71;40.08
48810;BME280;40070;47.322;18.784;2023-08-21T09:48:03;1007.17;;;34.86;39.32
48810;BME280;40070;47.322;18.784;2023-08-21T09:50:04;1007.15;;;34.97;41.00
48810;BME280;40070;47.322;18.784;2023-08-21T09:52:05;1007.17;;;35.22;38.88
48810;BME280;40070;47.322;18.784;2023-08-21T09:54:07;1007.16;;;35.35;39.43
48810;BME280;40070;47.322;18.784;2023-08-21T09:56:08;1007.17;;;35.27;38.31
48810;BME280;40070;47.322;18.784;2023-08-21T09:58:09;1007.13;;;35.18;38.05
48810;BME280;40070;47.322;18.784;2023-08-21T10:00:10;1007.13;;;35.30;39.61
48810;BME280;40070;47.322;18.784;2023-08-21T10:02:11;1007.13;;;35.47;38.42
48810;BME280;40070;47.322;18.784;2023-08-21T10:04:13;1007.11;;;35.74;37.76
48810;BME280;40070;47.322;18.784;2023-08-21T10:06:17;1007.14;;;35.97;37.90
48810;BME280;40070;47.322;18.784;2023-08-21T10:08:20;1007.15;;;35.95;40.90
48810;BME280;40070;47.322;18.784;2023-08-21T10:10:22;1007.12;;;35.82;37.85
48810;BME280;40070;47.322;18.784;2023-08-21T10:12:23;1007.09;;;35.49;39.43
48810;BME280;40070;47.322;18.784;2023-08-21T10:14:24;1007.07;;;35.62;38.71
48810;BME280;40070;47.322;18.784;2023-08-21T10:16:27;1007.00;;;35.48;38.82
48810;BME280;40070;47.322;18.784;2023-08-21T10:18:31;1007.02;;;35.40;37.70
48810;BME280;40070;47.322;18.784;2023-08-21T10:20:32;1007.00;;;35.42;38.12
48810;BME280;40070;47.322;18.784;2023-08-21T10:22:44;1006.99;;;35.65;38.15
48810;BME280;40070;47.322;18.784;2023-08-21T10:24:45;1007.01;;;35.79;38.87
48810;BME280;40070;47.322;18.784;2023-08-21T10:26:46;1006.97;;;35.83;37.48
48810;BME280;40070;47.322;18.784;2023-08-21T10:28:54;1006.97;;;35.97;37.66
48810;BME280;40070;47.322;18.784;2023-08-21T10:30:55;1006.95;;;36.07;39.80
48810;BME280;40070;47.322;18.784;2023-08-21T10:32:57;1006.95;;;35.75;37.69
48810;BME280;40070;47.322;18.784;2023-08-21T10:34:58;1006.94;;;35.94;37.13
48810;BME280;40070;47.322;18.784;2023-08-21T10:37:08;1006.89;;;35.78;36.71
48810;BME280;40070;47.322;18.784;2023-08-21T10:39:13;1006.89;;;36.07;38.02
48810;BME280;40070;47.322;18.784;2023-08-21T10:41:14;1006.86;;;36.23;37.84
48810;BME280;40070;47.322;18.784;2023-08-21T10:43:36;1006.87;;;36.24;37.44
48810;BME280;40070;47.322;18.784;2023-08-21T10:45:37;1006.87;;;36.12;38.20